Aviation Digital Data Service (ADDS)

Output produced by METARs form (0801 UTC 07 December 2021)
found at http://www.aviationweather.gov/metar/data/
 
ESTA 070750Z 11009KT 9999 FEW029 BKN040 M03/M06 Q1013
TAF ESTA 070502Z 0706/0715 11010KT 9999 BKN030